createdAt,value
2023-02-25T00:02:06.528Z,98849.59
2023-02-25T00:04:35.316Z,98843.38
2023-02-25T00:07:02.895Z,98839.75
2023-02-25T00:09:30.706Z,98840.47
2023-02-25T00:11:57.949Z,98837.28
2023-02-25T00:14:25.199Z,98837.69
2023-02-25T00:16:56.345Z,98822.41
2023-02-25T00:19:24.839Z,98833.66
2023-02-25T00:21:52.091Z,98834.81
2023-02-25T00:24:19.316Z,98833.13
2023-02-25T00:26:46.710Z,98827.19
2023-02-25T00:29:13.998Z,98827.09
2023-02-25T00:31:41.481Z,98827.78
2023-02-25T00:34:08.967Z,98822.44
2023-02-25T00:36:36.328Z,98820.09
2023-02-25T00:39:03.626Z,98830.38
2023-02-25T00:41:30.964Z,98835.72
2023-02-25T00:43:59.976Z,98843.88
2023-02-25T00:46:31.684Z,98853.38
2023-02-25T00:48:59.643Z,98856.06
2023-02-25T00:51:29.685Z,98856.41
2023-02-25T00:53:57.559Z,98865.63
2023-02-25T00:56:26.067Z,98880.88
2023-02-25T00:58:53.966Z,98850.53
2023-02-25T01:01:24.625Z,98843.06
2023-02-25T01:03:53.351Z,98849.28
2023-02-25T01:06:21.545Z,98844.78
2023-02-25T01:08:49.372Z,98850.38
2023-02-25T01:11:21.198Z,98839.50
2023-02-25T01:13:49.665Z,98845.19
2023-02-25T01:16:23.684Z,98839.84
2023-02-25T01:18:55.728Z,98837.88
2023-02-25T01:21:30.668Z,98833.47
2023-02-25T01:24:04.114Z,98830.72
2023-02-25T01:26:34.452Z,98838.44
2023-02-25T01:29:01.837Z,98837.81
2023-02-25T01:31:31.945Z,98846.59
2023-02-25T01:34:00.774Z,98841.44
2023-02-25T01:36:28.678Z,98843.06
2023-02-25T01:38:56.565Z,98853.44
2023-02-25T01:41:27.613Z,98855.22
2023-02-25T01:44:17.069Z,98852.34
2023-02-25T01:46:46.371Z,98857.19
2023-02-25T01:49:18.443Z,98860.91
2023-02-25T01:51:47.700Z,98844.31
2023-02-25T01:54:15.379Z,98859.94
2023-02-25T01:56:48.231Z,98864.03
2023-02-25T01:59:16.453Z,98848.47
2023-02-25T02:01:44.595Z,98865.63
2023-02-25T02:04:13.120Z,98860.41
2023-02-25T02:06:42.601Z,98866.53
2023-02-25T02:09:13.401Z,98859.88
2023-02-25T02:11:40.848Z,98863.44
2023-02-25T02:14:11.227Z,98869.25
2023-02-25T02:16:55.322Z,98871.31
2023-02-25T02:19:38.022Z,98868.75
2023-02-25T02:22:40.473Z,98879.97
2023-02-25T02:25:48.021Z,98864.03
2023-02-25T02:28:32.688Z,98873.13
2023-02-25T02:31:36.959Z,98860.06
2023-02-25T02:34:22.442Z,98860.09
2023-02-25T02:37:01.752Z,98862.38
2023-02-25T02:39:44.952Z,98854.72
2023-02-25T02:42:18.283Z,98866.94
2023-02-25T02:44:59.124Z,98869.47
2023-02-25T02:47:32.734Z,98866.16
2023-02-25T02:50:26.929Z,98863.97
2023-02-25T02:52:56.631Z,98865.75
2023-02-25T02:55:33.317Z,98883.88
2023-02-25T02:58:30.214Z,98869.00
2023-02-25T03:01:02.776Z,98873.34
2023-02-25T03:03:39.058Z,98863.16
2023-02-25T03:06:11.863Z,98880.78
2023-02-25T03:08:44.959Z,98882.31
2023-02-25T03:11:12.479Z,98890.00
2023-02-25T03:13:39.832Z,98894.28
2023-02-25T03:16:11.186Z,98903.03
2023-02-25T03:18:47.798Z,98903.81
2023-02-25T03:21:20.459Z,98910.84
2023-02-25T03:23:48.935Z,98909.16
2023-02-25T03:26:30.967Z,98926.25
2023-02-25T03:28:58.599Z,98912.81
2023-02-25T03:31:30.000Z,98927.25
2023-02-25T03:34:03.654Z,98939.47
2023-02-25T03:36:43.191Z,98940.09
2023-02-25T03:39:21.746Z,98931.97
2023-02-25T03:41:53.465Z,98944.38
2023-02-25T03:44:27.001Z,98939.81
2023-02-25T03:46:54.638Z,98952.94
2023-02-25T03:49:35.181Z,98955.53
2023-02-25T03:52:05.246Z,98956.81
2023-02-25T03:54:32.466Z,98963.44
2023-02-25T03:56:59.717Z,98951.59
2023-02-25T03:59:28.202Z,98972.38
2023-02-25T04:01:56.440Z,98966.00
2023-02-25T04:04:23.749Z,98970.47
2023-02-25T04:06:51.029Z,98969.56
2023-02-25T04:09:18.545Z,98976.56
2023-02-25T04:11:45.799Z,98985.22
2023-02-25T04:14:12.972Z,98988.31
2023-02-25T04:16:40.198Z,98994.44
2023-02-25T04:19:07.416Z,98995.31
2023-02-25T04:21:36.509Z,98998.94
2023-02-25T04:24:07.084Z,98991.25
2023-02-25T04:26:35.692Z,98997.28
2023-02-25T04:29:03.817Z,99001.44
2023-02-25T04:31:31.408Z,99001.84
2023-02-25T04:33:58.739Z,99014.00
2023-02-25T04:36:36.147Z,99016.09
2023-02-25T04:39:05.935Z,99010.06
2023-02-25T04:41:35.380Z,99011.84
2023-02-25T04:44:05.599Z,99016.91
2023-02-25T04:46:34.489Z,99017.88
2023-02-25T04:49:01.814Z,99023.31
2023-02-25T04:51:29.319Z,99020.44
2023-02-25T04:53:56.860Z,99030.75
2023-02-25T04:56:24.598Z,99028.28
2023-02-25T04:58:52.256Z,99022.31
2023-02-25T05:01:19.461Z,99035.31
2023-02-25T05:03:47.135Z,99027.34
2023-02-25T05:06:14.534Z,99039.59
2023-02-25T05:08:41.763Z,99039.78
2023-02-25T05:11:08.989Z,99036.63
2023-02-25T05:13:36.212Z,99040.84
2023-02-25T05:16:05.704Z,99038.50
2023-02-25T05:18:34.880Z,99041.66
2023-02-25T05:21:02.131Z,99039.22
2023-02-25T05:23:29.357Z,99040.09
2023-02-25T05:25:58.784Z,99046.94
2023-02-25T05:28:25.929Z,99046.50
2023-02-25T05:30:55.260Z,99062.06
2023-02-25T05:33:23.394Z,99063.41
2023-02-25T05:35:51.088Z,99069.91
2023-02-25T05:38:18.331Z,99073.13
2023-02-25T05:40:45.511Z,99058.28
2023-02-25T05:43:12.756Z,99070.72
2023-02-25T05:45:40.020Z,99066.50
2023-02-25T05:48:07.249Z,99079.78
2023-02-25T05:50:41.050Z,99083.44
2023-02-25T05:53:09.843Z,99100.88
2023-02-25T05:55:44.454Z,99102.25
2023-02-25T05:58:11.720Z,99107.28
2023-02-25T06:00:39.379Z,99121.19
2023-02-25T06:03:06.926Z,99121.34
2023-02-25T06:05:34.233Z,99130.34
2023-02-25T06:08:01.696Z,99128.59
2023-02-25T06:10:28.937Z,99127.72
2023-02-25T06:12:56.181Z,99141.72
2023-02-25T06:15:23.415Z,99136.19
2023-02-25T06:17:50.937Z,99150.00
2023-02-25T06:20:18.736Z,99148.94
2023-02-25T06:22:45.965Z,99169.81
2023-02-25T06:25:13.220Z,99166.53
2023-02-25T06:27:40.417Z,99168.72
2023-02-25T06:30:08.270Z,99175.75
2023-02-25T06:32:35.603Z,99177.34
2023-02-25T06:35:02.859Z,99187.81
2023-02-25T06:37:30.110Z,99185.97
2023-02-25T06:39:57.313Z,99189.22
2023-02-25T06:42:24.718Z,99196.78
2023-02-25T06:44:51.936Z,99205.66
2023-02-25T06:47:19.178Z,99202.31
2023-02-25T06:49:46.461Z,99206.69
2023-02-25T06:52:13.668Z,99217.00
2023-02-25T06:54:40.907Z,99224.75
2023-02-25T06:57:08.111Z,99230.16
2023-02-25T06:59:35.773Z,99232.59
2023-02-25T07:02:03.083Z,99235.06
2023-02-25T07:04:30.350Z,99235.25
2023-02-25T07:06:57.598Z,99249.94
2023-02-25T07:09:24.815Z,99252.75
2023-02-25T07:11:52.253Z,99247.41
2023-02-25T07:14:19.476Z,99262.09
2023-02-25T07:16:46.749Z,99267.19
2023-02-25T07:19:16.524Z,99263.34
2023-02-25T07:21:44.473Z,99259.66
2023-02-25T07:24:12.394Z,99270.03
2023-02-25T07:26:39.927Z,99269.44
2023-02-25T07:29:07.169Z,99268.66
2023-02-25T07:31:34.595Z,99276.38
2023-02-25T07:34:03.654Z,99283.28
2023-02-25T07:36:37.576Z,99293.59
2023-02-25T07:39:06.774Z,99289.91
2023-02-25T07:41:34.223Z,99296.72
2023-02-25T07:44:02.212Z,99299.53
2023-02-25T07:46:30.539Z,99305.06
2023-02-25T07:48:57.930Z,99311.88
2023-02-25T07:51:26.140Z,99309.31
2023-02-25T07:53:55.620Z,99314.59
2023-02-25T07:56:24.188Z,99319.84
2023-02-25T07:58:51.476Z,99310.31
2023-02-25T08:01:31.757Z,99325.66
2023-02-25T08:04:04.280Z,99336.03
2023-02-25T08:06:32.419Z,99325.81
2023-02-25T08:08:59.622Z,99338.16
2023-02-25T08:11:27.860Z,99334.75
2023-02-25T08:13:55.316Z,99345.69
2023-02-25T08:16:22.822Z,99343.16
2023-02-25T08:18:50.498Z,99343.03
2023-02-25T08:21:21.751Z,99346.59
2023-02-25T08:23:52.476Z,99350.13
2023-02-25T08:26:22.351Z,99350.97
2023-02-25T08:28:50.138Z,99365.34
2023-02-25T08:31:17.984Z,99369.09
2023-02-25T08:33:52.601Z,99376.72
2023-02-25T08:36:22.955Z,99366.16
2023-02-25T08:38:51.538Z,99378.47
2023-02-25T08:41:20.711Z,99396.06
2023-02-25T08:43:49.275Z,99387.59
2023-02-25T08:46:16.551Z,99385.00
2023-02-25T08:48:45.130Z,99394.72
2023-02-25T08:51:12.387Z,99393.72
2023-02-25T08:53:40.722Z,99408.31
2023-02-25T08:56:09.888Z,99398.81
2023-02-25T08:58:38.550Z,99404.47
2023-02-25T09:01:13.310Z,99416.56
2023-02-25T09:03:53.604Z,99414.72
2023-02-25T09:06:23.661Z,99421.84
2023-02-25T09:08:51.704Z,99429.09
2023-02-25T09:11:19.651Z,99431.00
2023-02-25T09:13:46.876Z,99428.09
2023-02-25T09:16:17.982Z,99437.75
2023-02-25T09:18:46.308Z,99441.16
2023-02-25T09:21:14.376Z,99455.78
2023-02-25T09:23:42.226Z,99449.97
2023-02-25T09:26:09.570Z,99452.44
2023-02-25T09:28:37.085Z,99457.25
2023-02-25T09:31:06.913Z,99461.03
2023-02-25T09:33:36.042Z,99459.91
2023-02-25T09:36:11.147Z,99460.66
2023-02-25T09:38:39.835Z,99468.19
2023-02-25T09:41:25.027Z,99465.50
2023-02-25T09:44:01.271Z,99467.47
2023-02-25T09:46:30.491Z,99479.41
2023-02-25T09:49:05.780Z,99485.84
2023-02-25T09:51:43.025Z,99494.25
2023-02-25T09:54:24.661Z,99485.59
2023-02-25T09:56:55.026Z,99493.34
2023-02-25T09:59:22.347Z,99513.16
2023-02-25T10:01:52.035Z,99510.66
2023-02-25T10:04:39.094Z,99517.44
2023-02-25T10:07:29.873Z,99516.91
2023-02-25T10:10:13.622Z,99511.59
2023-02-25T10:13:08.239Z,99524.72
2023-02-25T10:15:57.254Z,99526.16
2023-02-25T10:18:51.791Z,99520.03
2023-02-25T10:21:38.344Z,99524.63
2023-02-25T10:24:44.493Z,99536.56
2023-02-25T10:27:45.805Z,99529.94
2023-02-25T10:30:13.437Z,99528.25
2023-02-25T10:32:42.880Z,99532.25
2023-02-25T10:35:26.148Z,99540.78
2023-02-25T10:37:53.410Z,99554.09
2023-02-25T10:40:24.474Z,99549.13
2023-02-25T10:42:57.236Z,99558.84
2023-02-25T10:45:29.162Z,99565.50
2023-02-25T10:48:32.485Z,99562.56
2023-02-25T10:51:12.725Z,99562.72
2023-02-25T10:53:41.949Z,99568.72
2023-02-25T10:56:10.698Z,99577.41
2023-02-25T10:58:46.924Z,99574.53
2023-02-25T11:01:16.071Z,99576.53
2023-02-25T11:03:54.288Z,99579.59
2023-02-25T11:06:42.664Z,99577.72
2023-02-25T11:09:23.279Z,99589.50
2023-02-25T11:12:18.952Z,99580.41
2023-02-25T11:14:46.441Z,99587.78
2023-02-25T11:17:20.240Z,99592.28
2023-02-25T11:19:59.789Z,99603.47
2023-02-25T11:22:37.928Z,99621.94
2023-02-25T11:25:16.195Z,99623.41
2023-02-25T11:27:45.771Z,99627.28
2023-02-25T11:30:17.998Z,99618.63
2023-02-25T11:32:48.668Z,99625.06
2023-02-25T11:35:19.875Z,99631.44
2023-02-25T11:37:48.475Z,99630.03
2023-02-25T11:40:28.136Z,99633.41
2023-02-25T11:43:18.624Z,99640.47
2023-02-25T11:46:01.579Z,99649.56
2023-02-25T11:48:50.157Z,99660.25
2023-02-25T11:51:27.041Z,99655.09
2023-02-25T11:54:01.209Z,99653.66
2023-02-25T11:56:44.966Z,99656.59
2023-02-25T11:59:54.120Z,99666.16
2023-02-25T12:02:30.553Z,99667.22
2023-02-25T12:05:20.366Z,99674.75
2023-02-25T12:08:18.007Z,99676.41
2023-02-25T12:11:09.732Z,99673.66
2023-02-25T12:14:15.039Z,99683.50
2023-02-25T12:17:21.594Z,99690.16
2023-02-25T12:20:31.680Z,99692.69
2023-02-25T12:23:17.555Z,99692.69
2023-02-25T12:26:14.112Z,99695.88
2023-02-25T12:28:45.623Z,99702.28
2023-02-25T12:31:50.956Z,99707.44
2023-02-25T12:34:39.730Z,99711.31
2023-02-25T12:37:29.812Z,99705.06
2023-02-25T12:40:20.391Z,99729.13
2023-02-25T12:43:07.319Z,99724.00
2023-02-25T12:45:34.610Z,99720.41
2023-02-25T12:48:20.373Z,99733.44
2023-02-25T12:51:23.110Z,99730.88
2023-02-25T12:54:04.304Z,99745.53
2023-02-25T12:56:53.362Z,99752.97
2023-02-25T12:59:46.101Z,99754.22
2023-02-25T13:02:38.319Z,99759.13
2023-02-25T13:05:20.711Z,99761.63
2023-02-25T13:08:10.549Z,99763.31
2023-02-25T13:10:51.289Z,99760.63
2023-02-25T13:13:55.822Z,99768.19
2023-02-25T13:16:49.569Z,99765.91
2023-02-25T13:19:41.017Z,99774.16
2023-02-25T13:22:49.196Z,99785.97
2023-02-25T13:25:46.327Z,99790.34
2023-02-25T13:28:32.957Z,99802.59
2023-02-25T13:31:24.710Z,99798.56
2023-02-25T13:34:28.949Z,99809.28
2023-02-25T13:37:21.636Z,99806.78
2023-02-25T13:40:02.411Z,99811.97
2023-02-25T13:43:13.685Z,99808.63
2023-02-25T13:45:56.480Z,99827.47
2023-02-25T13:48:49.783Z,99833.25
2023-02-25T13:55:04.474Z,99833.16
2023-02-25T13:58:17.853Z,99841.25
2023-02-25T14:01:16.810Z,99839.44
2023-02-25T14:04:19.569Z,99848.91
2023-02-25T14:07:20.159Z,99854.03
2023-02-25T14:10:19.028Z,99857.34
2023-02-25T14:13:34.488Z,99860.19
2023-02-25T14:16:43.205Z,99870.53
2023-02-25T14:19:27.046Z,99863.69
2023-02-25T14:22:31.465Z,99877.53
2023-02-25T14:25:27.995Z,99870.47
2023-02-25T14:28:22.754Z,99879.06
2023-02-25T14:31:14.454Z,99880.66
2023-02-25T14:34:08.016Z,99889.41
2023-02-25T14:36:48.104Z,99898.00
2023-02-25T14:39:36.405Z,99894.63
2023-02-25T14:42:23.839Z,99898.91
2023-02-25T14:45:08.831Z,99901.41
2023-02-25T14:47:40.010Z,99900.56
2023-02-25T14:50:18.590Z,99917.09
2023-02-25T14:53:00.586Z,99912.84
2023-02-25T14:55:52.536Z,99925.78
2023-02-25T14:58:47.231Z,99923.06
2023-02-25T15:01:37.138Z,99931.69
2023-02-25T15:04:19.811Z,99932.75
2023-02-25T15:07:23.075Z,99937.13
2023-02-25T15:10:18.619Z,99958.16
2023-02-25T15:12:58.872Z,99951.03
2023-02-25T15:16:00.971Z,99958.72
2023-02-25T15:18:49.222Z,99971.63
2023-02-25T15:21:44.029Z,99970.91
2023-02-25T15:24:40.991Z,99986.72
2023-02-25T15:27:33.141Z,99990.13
2023-02-25T15:30:09.108Z,99992.19
2023-02-25T15:33:17.699Z,99999.84
2023-02-25T15:35:53.645Z,100004.19
2023-02-25T15:38:38.394Z,100015.59
2023-02-25T15:41:29.650Z,100018.31
2023-02-25T15:44:13.004Z,100021.72
2023-02-25T15:46:45.552Z,100022.56
2023-02-25T15:49:34.879Z,100021.88
2023-02-25T15:52:04.653Z,100035.84
2023-02-25T15:54:47.112Z,100026.22
2023-02-25T15:57:23.415Z,100045.28
2023-02-25T15:59:58.224Z,100043.63
2023-02-25T16:02:34.773Z,100053.31
2023-02-25T16:05:18.802Z,100047.31
2023-02-25T16:07:49.322Z,100056.00
2023-02-25T16:10:21.998Z,100057.78
2023-02-25T16:12:50.876Z,100058.63
2023-02-25T16:15:40.684Z,100068.19
2023-02-25T16:18:34.840Z,100070.88
2023-02-25T16:21:07.640Z,100085.50
2023-02-25T16:23:41.492Z,100089.94
2023-02-25T16:26:44.675Z,100096.91
2023-02-25T16:29:36.858Z,100096.91
2023-02-25T16:32:49.383Z,100102.19
2023-02-25T16:35:24.638Z,100109.13
2023-02-25T16:38:18.819Z,100119.53
2023-02-25T16:40:46.784Z,100132.50
2023-02-25T16:43:22.231Z,100132.44
2023-02-25T16:46:01.611Z,100139.38
2023-02-25T16:48:39.704Z,100148.91
2023-02-25T16:51:12.700Z,100151.56
2023-02-25T16:53:45.326Z,100152.44
2023-02-25T16:56:20.027Z,100148.97
2023-02-25T16:59:05.402Z,100157.53
2023-02-25T17:01:34.685Z,100161.81
2023-02-25T17:04:03.671Z,100166.31
2023-02-25T17:06:30.951Z,100175.00
2023-02-25T17:08:58.237Z,100180.13
2023-02-25T17:11:26.420Z,100176.66
2023-02-25T17:14:03.791Z,100185.31
2023-02-25T17:16:36.817Z,100193.06
2023-02-25T17:19:06.815Z,100195.75
2023-02-25T17:21:39.588Z,100197.44
2023-02-25T17:24:11.751Z,100202.63
2023-02-25T17:26:44.410Z,100207.00
2023-02-25T17:29:14.573Z,100211.34
2023-02-25T17:31:52.035Z,100218.22
2023-02-25T17:34:30.109Z,100218.22
2023-02-25T17:37:04.603Z,100220.75
2023-02-25T17:39:32.527Z,100223.34
2023-02-25T17:42:01.663Z,100234.63
2023-02-25T17:44:39.897Z,100230.31
2023-02-25T17:47:10.123Z,100236.31
2023-02-25T17:49:39.246Z,100236.28
2023-02-25T17:52:26.976Z,100246.66
2023-02-25T17:55:21.765Z,100242.41
2023-02-25T17:57:48.999Z,100255.38
2023-02-25T18:00:24.018Z,100255.38
2023-02-25T18:03:17.246Z,100251.91
2023-02-25T18:06:02.716Z,100261.44
2023-02-25T18:08:30.071Z,100269.19
2023-02-25T18:11:32.933Z,100270.94
2023-02-25T18:14:05.150Z,100270.94
2023-02-25T18:16:45.228Z,100278.81
2023-02-25T18:19:31.805Z,100282.19
2023-02-25T18:21:59.957Z,100281.34
2023-02-25T18:24:33.464Z,100285.69
2023-02-25T18:27:20.472Z,100294.28
2023-02-25T18:29:48.172Z,100294.28
2023-02-25T18:32:16.096Z,100292.63
2023-02-25T18:34:43.497Z,100299.53
2023-02-25T18:37:14.769Z,100303.84
2023-02-25T18:39:42.070Z,100313.38
2023-02-25T18:42:15.040Z,100307.31
2023-02-25T18:44:43.269Z,100309.91
2023-02-25T18:47:10.542Z,100327.19
2023-02-25T18:49:38.255Z,100316.88
2023-02-25T18:52:11.576Z,100330.66
2023-02-25T18:54:38.861Z,100317.72
2023-02-25T18:57:22.166Z,100322.94
2023-02-25T18:59:49.454Z,100329.84
2023-02-25T19:02:37.130Z,100326.31
2023-02-25T19:05:06.775Z,100331.53
2023-02-25T19:07:41.468Z,100347.06
2023-02-25T19:10:09.244Z,100341.88
2023-02-25T19:12:36.837Z,100341.03
2023-02-25T19:15:11.578Z,100348.81
2023-02-25T19:17:38.857Z,100363.47
2023-02-25T19:20:07.017Z,100358.31
2023-02-25T19:22:34.337Z,100365.22
2023-02-25T19:25:01.577Z,100359.16
2023-02-25T19:27:30.437Z,100359.16
2023-02-25T19:29:59.133Z,100360.03
2023-02-25T19:32:26.839Z,100369.56
2023-02-25T19:34:54.049Z,100379.00
2023-02-25T19:37:21.348Z,100380.75
2023-02-25T19:39:48.667Z,100379.06
2023-02-25T19:42:16.303Z,100381.63
2023-02-25T19:44:43.897Z,100386.81
2023-02-25T19:47:11.261Z,100396.31
2023-02-25T19:49:38.543Z,100389.38
2023-02-25T19:52:05.891Z,100395.44
2023-02-25T19:54:35.261Z,100398.91
2023-02-25T19:57:04.037Z,100392.84
2023-02-25T19:59:31.661Z,100404.09
2023-02-25T20:01:59.236Z,100407.53
2023-02-25T20:04:26.710Z,100415.31
2023-02-25T20:06:55.503Z,100413.56
2023-02-25T20:09:22.740Z,100410.13
2023-02-25T20:11:51.545Z,100420.47
2023-02-25T20:14:24.470Z,100424.78
2023-02-25T20:16:54.042Z,100428.25
2023-02-25T20:19:29.096Z,100435.16
2023-02-25T20:21:58.202Z,100433.47
2023-02-25T20:24:25.537Z,100438.59
2023-02-25T20:26:52.969Z,100442.06
2023-02-25T20:29:20.370Z,100441.19
2023-02-25T20:31:47.869Z,100446.41
2023-02-25T20:34:19.142Z,100448.13
2023-02-25T20:37:18.855Z,100448.13
2023-02-25T20:39:49.620Z,100456.75
2023-02-25T20:42:20.653Z,100458.50
2023-02-25T20:44:51.248Z,100464.53
2023-02-25T20:47:26.357Z,100468.84
2023-02-25T20:49:54.942Z,100474.03
2023-02-25T20:52:23.570Z,100476.63
2023-02-25T20:54:50.799Z,100487.84
2023-02-25T20:57:21.263Z,100482.66
2023-02-25T20:59:49.604Z,100492.16
2023-02-25T21:02:18.478Z,100486.97
2023-02-25T21:04:46.202Z,100494.72
2023-02-25T21:07:20.697Z,100486.97
2023-02-25T21:09:48.177Z,100494.75
2023-02-25T21:12:15.405Z,100505.97
2023-02-25T21:14:42.660Z,100506.81
2023-02-25T21:17:13.635Z,100506.81
2023-02-25T21:19:41.293Z,100509.38
2023-02-25T21:22:09.546Z,100509.41
2023-02-25T21:24:37.107Z,100504.22
2023-02-25T21:27:04.728Z,100507.66
2023-02-25T21:29:32.576Z,100511.13
2023-02-25T21:31:59.861Z,100518.06
2023-02-25T21:34:27.129Z,100529.25
2023-02-25T21:36:57.677Z,100524.06
2023-02-25T21:39:26.615Z,100526.69
2023-02-25T21:41:54.162Z,100527.53
2023-02-25T21:44:22.133Z,100534.47
2023-02-25T21:46:54.970Z,100528.44
2023-02-25T21:49:22.652Z,100530.16
2023-02-25T21:51:51.245Z,100534.47
2023-02-25T21:54:18.489Z,100535.34
2023-02-25T21:56:45.967Z,100539.66
2023-02-25T21:59:13.423Z,100537.06
2023-02-25T22:01:42.365Z,100537.09
2023-02-25T22:04:09.934Z,100539.63
2023-02-25T22:06:37.425Z,100534.47
2023-02-25T22:09:07.144Z,100543.09
2023-02-25T22:11:35.986Z,100551.75
2023-02-25T22:14:10.284Z,100551.75
2023-02-25T22:16:42.913Z,100558.63
2023-02-25T22:19:11.219Z,100549.13
2023-02-25T22:21:38.510Z,100556.88
2023-02-25T22:24:06.270Z,100558.63
2023-02-25T22:26:35.079Z,100564.69
2023-02-25T22:29:05.560Z,100569.84
2023-02-25T22:31:34.096Z,100573.31
2023-02-25T22:34:02.148Z,100575.00
2023-02-25T22:36:29.528Z,100573.31
2023-02-25T22:38:56.765Z,100576.72
2023-02-25T22:41:29.204Z,100581.94
2023-02-25T22:43:57.948Z,100581.03
2023-02-25T22:46:28.306Z,100586.22
2023-02-25T22:48:56.319Z,100594.84
2023-02-25T22:51:29.138Z,100593.13
2023-02-25T22:53:56.918Z,100600.84
2023-02-25T22:56:24.695Z,100604.34
2023-02-25T22:58:52.472Z,100613.81
2023-02-25T23:01:22.089Z,100618.13
2023-02-25T23:03:50.416Z,100620.66
2023-02-25T23:06:19.465Z,100618.97
2023-02-25T23:08:46.876Z,100619.75
2023-02-25T23:11:19.803Z,100631.03
2023-02-25T23:13:49.430Z,100624.16
2023-02-25T23:16:18.928Z,100633.63
2023-02-25T23:18:46.978Z,100642.31
2023-02-25T23:21:19.633Z,100641.50
2023-02-25T23:23:48.535Z,100644.06
2023-02-25T23:26:17.507Z,100644.94
2023-02-25T23:28:45.138Z,100646.66
2023-02-25T23:31:41.437Z,100651.84
2023-02-25T23:34:11.453Z,100653.53
2023-02-25T23:36:40.049Z,100658.63
2023-02-25T23:39:08.191Z,100658.66
2023-02-25T23:41:36.522Z,100655.22
2023-02-25T23:44:04.865Z,100667.28
2023-02-25T23:46:32.602Z,100659.47
2023-02-25T23:49:03.249Z,100673.31
2023-02-25T23:51:30.975Z,100677.53
2023-02-25T23:54:00.632Z,100674.03
2023-02-25T23:56:29.586Z,100672.22
2023-02-25T23:58:57.226Z,100678.34
